San Diego, CA

6:12 AM PST on February 07, 2016 (GMT -0800)
North Island Naval Air Station | | Change Station
CLOSE
Current Station
Airport
Location: North Island,
Elevation: 23 ft
Nearby Weather Stations

Elev 23 ft 32.69 °N, 117.21 °W | Updated 20 minutes ago

Clear
Clear
46 °F
Feels Like 45 °F
N
4
Wind Variable Wind from NNW

Today
High -- | Low -- °F
--% Chance of Precip.
Yesterday
High -- | Low -- °F
Precip. -- in
Pressure 30.10 in
Visibility 10.0 miles
Clouds Clear
Windchill 45 °F
Dew Point 37 °F
Humidity 71%
Rainfall 0.00 in
Snow Depth Not available.
6:39 AM 5:26 PM
Waning Crescent, 1% visible
METAR KNZY 071352Z AUTO 33003KT 10SM CLR 08/03 A3010 RMK AO2 SLP191 T00780028 $
Pressure 30.10 in
Visibility 10.0 miles
Clouds Clear
Windchill 45 °F
Dew Point 37 °F
Humidity 71%
Rainfall 0.00 in
Snow Depth Not available.
6:39 AM 5:26 PM
Waning Crescent, 1% visible
METAR KNZY 071352Z AUTO 33003KT 10SM CLR 08/03 A3010 RMK AO2 SLP191 T00780028 $

10-Day Weather Forecast

Almanac

Astronomy

Feb. 07, 2016 Rise Set
Actual Time
Civil Twilight
Nautical Twilight
Astronomical Twilight
Moon
Length of Visible Light
Length of Day
Tomorrow will be .
, % of the Moon is Illuminated

Today's Extremes

State Highs State Lows

Community

WunderPhotos

Upload Photos

1,891,204 photos uploaded!

WunderBlog® & News

Nearby

Air Quality

  Air Quality AQ Index Pollutant
Not available.

Snow Depth

Station Depth Elevation

Earthquake Activity

City Distance Mag. Time & Date
Minimum magnitude displayed is 2.5.

Coastal Water Temperatures

Place Temperature

Stations

Nearby Weather Stations

Station Location Temp. Windchill Dew Point Humidity Wind Precip. Elev Updated Type
                   

Watches & Warnings

There are currently no watches in effect.